Terminal Aerodrome Forecast
Issued by NWS

Home | Current Version | Previous Version | Text Only | Print | Product List | Glossary On
Versions: 1 2 3 4 5 6 7 8 9 10 11 12 13 14
412
FTUS43 KMPX 131128
TAFAXN
TAF
KAXN 131128Z 1312/1412 13003KT P6SM SCT250
     FM132100 14014KT P6SM BKN100
     FM140200 15017G23KT 3SM -SN BLSN OVC025
     FM140600 14016G22KT 1 1/2SM -SN BLSN OVC015=

USA.gov is the U.S. government's official web portal to all federal, state and local government web resources and services.